sensor_id;sensor_type;location;lat;lon;timestamp;P1;durP1;ratioP1;P2;durP2;ratioP2
4957;SDS011;2494;51.872;9.688;2022-12-18T00:02:15;27.40;;;16.38;;
4957;SDS011;2494;51.872;9.688;2022-12-18T00:05:02;29.70;;;16.43;;
4957;SDS011;2494;51.872;9.688;2022-12-18T00:07:47;28.83;;;15.47;;
4957;SDS011;2494;51.872;9.688;2022-12-18T00:10:32;30.67;;;17.17;;
4957;SDS011;2494;51.872;9.688;2022-12-18T00:13:17;34.63;;;16.93;;
4957;SDS011;2494;51.872;9.688;2022-12-18T00:16:02;33.10;;;17.53;;
4957;SDS011;2494;51.872;9.688;2022-12-18T00:18:48;36.67;;;16.97;;
4957;SDS011;2494;51.872;9.688;2022-12-18T00:21:34;32.77;;;19.47;;
4957;SDS011;2494;51.872;9.688;2022-12-18T00:24:19;27.87;;;17.67;;
4957;SDS011;2494;51.872;9.688;2022-12-18T00:27:04;29.67;;;16.13;;
4957;SDS011;2494;51.872;9.688;2022-12-18T00:29:49;36.80;;;18.20;;
4957;SDS011;2494;51.872;9.688;2022-12-18T00:32:34;37.90;;;18.63;;
4957;SDS011;2494;51.872;9.688;2022-12-18T00:35:18;38.33;;;18.43;;
4957;SDS011;2494;51.872;9.688;2022-12-18T00:38:05;28.63;;;16.90;;
4957;SDS011;2494;51.872;9.688;2022-12-18T00:40:50;32.50;;;18.20;;
4957;SDS011;2494;51.872;9.688;2022-12-18T00:43:35;30.67;;;17.37;;
4957;SDS011;2494;51.872;9.688;2022-12-18T00:46:19;39.47;;;20.30;;
4957;SDS011;2494;51.872;9.688;2022-12-18T00:49:03;29.33;;;19.40;;
4957;SDS011;2494;51.872;9.688;2022-12-18T00:51:48;30.93;;;17.67;;
4957;SDS011;2494;51.872;9.688;2022-12-18T00:54:35;28.50;;;17.90;;
4957;SDS011;2494;51.872;9.688;2022-12-18T00:57:20;28.23;;;15.90;;
4957;SDS011;2494;51.872;9.688;2022-12-18T01:00:05;26.80;;;15.93;;
4957;SDS011;2494;51.872;9.688;2022-12-18T01:02:51;26.10;;;15.80;;
4957;SDS011;2494;51.872;9.688;2022-12-18T01:05:38;25.80;;;15.07;;
4957;SDS011;2494;51.872;9.688;2022-12-18T01:08:23;28.00;;;15.70;;
4957;SDS011;2494;51.872;9.688;2022-12-18T01:11:10;30.77;;;16.25;;
4957;SDS011;2494;51.872;9.688;2022-12-18T01:13:55;30.90;;;16.50;;
4957;SDS011;2494;51.872;9.688;2022-12-18T01:16:43;30.23;;;13.30;;
4957;SDS011;2494;51.872;9.688;2022-12-18T01:19:27;27.40;;;14.87;;
4957;SDS011;2494;51.872;9.688;2022-12-18T01:22:12;35.23;;;15.47;;
4957;SDS011;2494;51.872;9.688;2022-12-18T01:24:57;24.77;;;13.33;;
4957;SDS011;2494;51.872;9.688;2022-12-18T01:27:43;30.00;;;14.63;;
4957;SDS011;2494;51.872;9.688;2022-12-18T01:30:28;23.10;;;12.63;;
4957;SDS011;2494;51.872;9.688;2022-12-18T01:33:13;29.87;;;15.47;;
4957;SDS011;2494;51.872;9.688;2022-12-18T01:35:58;24.70;;;13.53;;
4957;SDS011;2494;51.872;9.688;2022-12-18T01:38:43;31.80;;;16.63;;
4957;SDS011;2494;51.872;9.688;2022-12-18T01:41:29;23.07;;;14.20;;
4957;SDS011;2494;51.872;9.688;2022-12-18T01:47:41;22.37;;;14.10;;
4957;SDS011;2494;51.872;9.688;2022-12-18T01:50:28;26.20;;;16.20;;
4957;SDS011;2494;51.872;9.688;2022-12-18T01:53:15;40.22;;;21.55;;
4957;SDS011;2494;51.872;9.688;2022-12-18T01:56:01;26.77;;;15.20;;
4957;SDS011;2494;51.872;9.688;2022-12-18T01:58:52;28.63;;;16.10;;
4957;SDS011;2494;51.872;9.688;2022-12-18T02:01:38;28.23;;;13.60;;
4957;SDS011;2494;51.872;9.688;2022-12-18T02:04:25;22.50;;;14.87;;
4957;SDS011;2494;51.872;9.688;2022-12-18T02:07:11;26.93;;;14.53;;
4957;SDS011;2494;51.872;9.688;2022-12-18T02:10:00;27.25;;;14.88;;
4957;SDS011;2494;51.872;9.688;2022-12-18T02:12:48;34.90;;;19.23;;
4957;SDS011;2494;51.872;9.688;2022-12-18T02:15:35;35.10;;;20.73;;
4957;SDS011;2494;51.872;9.688;2022-12-18T02:18:21;23.70;;;13.63;;
4957;SDS011;2494;51.872;9.688;2022-12-18T02:21:11;25.60;;;12.80;;
4957;SDS011;2494;51.872;9.688;2022-12-18T02:24:04;28.03;;;16.10;;
4957;SDS011;2494;51.872;9.688;2022-12-18T02:26:58;20.10;;;12.80;;
4957;SDS011;2494;51.872;9.688;2022-12-18T02:29:46;26.70;;;15.30;;
4957;SDS011;2494;51.872;9.688;2022-12-18T02:32:34;25.30;;;15.17;;
4957;SDS011;2494;51.872;9.688;2022-12-18T02:35:20;35.20;;;17.93;;
4957;SDS011;2494;51.872;9.688;2022-12-18T02:38:06;32.77;;;17.97;;
4957;SDS011;2494;51.872;9.688;2022-12-18T02:40:52;24.90;;;15.67;;
4957;SDS011;2494;51.872;9.688;2022-12-18T02:43:39;25.23;;;15.38;;
4957;SDS011;2494;51.872;9.688;2022-12-18T02:46:26;23.13;;;14.17;;
4957;SDS011;2494;51.872;9.688;2022-12-18T02:49:20;25.50;;;15.30;;
4957;SDS011;2494;51.872;9.688;2022-12-18T02:52:08;34.10;;;17.40;;
4957;SDS011;2494;51.872;9.688;2022-12-18T02:55:00;25.73;;;14.52;;
4957;SDS011;2494;51.872;9.688;2022-12-18T02:57:49;30.83;;;17.67;;
4957;SDS011;2494;51.872;9.688;2022-12-18T03:00:37;23.02;;;15.40;;
4957;SDS011;2494;51.872;9.688;2022-12-18T03:03:24;27.75;;;15.48;;
4957;SDS011;2494;51.872;9.688;2022-12-18T03:06:10;33.20;;;16.40;;
4957;SDS011;2494;51.872;9.688;2022-12-18T03:08:59;30.50;;;15.60;;
4957;SDS011;2494;51.872;9.688;2022-12-18T03:11:46;23.73;;;14.87;;
4957;SDS011;2494;51.872;9.688;2022-12-18T03:14:50;33.20;;;18.50;;
4957;SDS011;2494;51.872;9.688;2022-12-18T03:17:38;26.80;;;15.73;;
4957;SDS011;2494;51.872;9.688;2022-12-18T03:20:25;28.80;;;14.70;;
4957;SDS011;2494;51.872;9.688;2022-12-18T03:23:12;25.13;;;14.10;;
4957;SDS011;2494;51.872;9.688;2022-12-18T03:25:59;33.58;;;15.40;;
4957;SDS011;2494;51.872;9.688;2022-12-18T03:28:46;25.10;;;12.87;;
4957;SDS011;2494;51.872;9.688;2022-12-18T03:31:32;23.73;;;13.83;;
4957;SDS011;2494;51.872;9.688;2022-12-18T03:34:23;24.83;;;15.70;;
4957;SDS011;2494;51.872;9.688;2022-12-18T03:37:11;35.17;;;17.07;;
4957;SDS011;2494;51.872;9.688;2022-12-18T03:39:56;23.53;;;14.70;;
4957;SDS011;2494;51.872;9.688;2022-12-18T03:42:43;24.07;;;12.67;;
4957;SDS011;2494;51.872;9.688;2022-12-18T03:45:31;29.40;;;17.33;;
4957;SDS011;2494;51.872;9.688;2022-12-18T03:48:19;32.90;;;18.50;;
4957;SDS011;2494;51.872;9.688;2022-12-18T03:51:07;24.70;;;14.73;;
4957;SDS011;2494;51.872;9.688;2022-12-18T03:53:55;27.07;;;15.80;;
4957;SDS011;2494;51.872;9.688;2022-12-18T03:56:43;26.73;;;13.03;;
4957;SDS011;2494;51.872;9.688;2022-12-18T03:59:30;30.83;;;15.85;;
4957;SDS011;2494;51.872;9.688;2022-12-18T04:02:15;28.98;;;13.50;;
4957;SDS011;2494;51.872;9.688;2022-12-18T04:05:01;25.50;;;15.15;;
4957;SDS011;2494;51.872;9.688;2022-12-18T04:07:49;19.50;;;12.25;;
4957;SDS011;2494;51.872;9.688;2022-12-18T04:10:35;17.50;;;10.45;;
4957;SDS011;2494;51.872;9.688;2022-12-18T04:13:24;26.23;;;14.80;;
4957;SDS011;2494;51.872;9.688;2022-12-18T04:16:09;20.73;;;12.93;;
4957;SDS011;2494;51.872;9.688;2022-12-18T04:18:54;25.90;;;13.50;;
4957;SDS011;2494;51.872;9.688;2022-12-18T04:21:39;29.17;;;13.03;;
4957;SDS011;2494;51.872;9.688;2022-12-18T04:24:25;26.73;;;14.90;;
4957;SDS011;2494;51.872;9.688;2022-12-18T04:27:10;29.13;;;15.97;;
4957;SDS011;2494;51.872;9.688;2022-12-18T04:29:56;22.87;;;13.10;;
4957;SDS011;2494;51.872;9.688;2022-12-18T04:32:41;26.00;;;12.83;;
4957;SDS011;2494;51.872;9.688;2022-12-18T04:35:28;26.20;;;11.90;;
4957;SDS011;2494;51.872;9.688;2022-12-18T04:38:13;19.80;;;13.25;;
4957;SDS011;2494;51.872;9.688;2022-12-18T04:40:59;29.40;;;14.07;;
4957;SDS011;2494;51.872;9.688;2022-12-18T04:43:44;20.07;;;11.80;;
4957;SDS011;2494;51.872;9.688;2022-12-18T04:46:29;21.53;;;10.77;;
4957;SDS011;2494;51.872;9.688;2022-12-18T04:49:14;19.00;;;11.43;;
4957;SDS011;2494;51.872;9.688;2022-12-18T04:51:59;21.53;;;14.07;;
4957;SDS011;2494;51.872;9.688;2022-12-18T04:54:44;22.48;;;11.85;;
4957;SDS011;2494;51.872;9.688;2022-12-18T04:57:30;29.10;;;12.23;;
4957;SDS011;2494;51.872;9.688;2022-12-18T05:00:15;22.55;;;12.27;;
4957;SDS011;2494;51.872;9.688;2022-12-18T05:03:00;19.10;;;11.20;;
4957;SDS011;2494;51.872;9.688;2022-12-18T05:05:48;18.80;;;11.00;;
4957;SDS011;2494;51.872;9.688;2022-12-18T05:08:33;17.40;;;9.87;;
4957;SDS011;2494;51.872;9.688;2022-12-18T05:11:18;22.20;;;10.70;;
4957;SDS011;2494;51.872;9.688;2022-12-18T05:14:04;26.30;;;11.27;;
4957;SDS011;2494;51.872;9.688;2022-12-18T05:16:49;19.53;;;10.07;;
4957;SDS011;2494;51.872;9.688;2022-12-18T05:19:34;21.80;;;13.33;;
4957;SDS011;2494;51.872;9.688;2022-12-18T05:22:22;22.57;;;13.03;;
4957;SDS011;2494;51.872;9.688;2022-12-18T05:25:07;21.97;;;14.30;;
4957;SDS011;2494;51.872;9.688;2022-12-18T05:27:52;19.57;;;11.47;;
4957;SDS011;2494;51.872;9.688;2022-12-18T05:30:38;22.93;;;12.17;;
4957;SDS011;2494;51.872;9.688;2022-12-18T05:33:26;19.80;;;10.50;;
4957;SDS011;2494;51.872;9.688;2022-12-18T05:36:11;22.47;;;11.97;;
4957;SDS011;2494;51.872;9.688;2022-12-18T05:38:56;21.70;;;11.23;;
4957;SDS011;2494;51.872;9.688;2022-12-18T05:41:41;14.80;;;10.27;;
4957;SDS011;2494;51.872;9.688;2022-12-18T05:44:26;19.17;;;11.23;;
4957;SDS011;2494;51.872;9.688;2022-12-18T05:47:12;17.48;;;10.73;;
4957;SDS011;2494;51.872;9.688;2022-12-18T05:49:57;18.00;;;10.27;;
4957;SDS011;2494;51.872;9.688;2022-12-18T05:52:42;18.17;;;10.85;;
4957;SDS011;2494;51.872;9.688;2022-12-18T05:55:27;23.37;;;10.20;;
4957;SDS011;2494;51.872;9.688;2022-12-18T05:58:12;14.50;;;9.60;;
4957;SDS011;2494;51.872;9.688;2022-12-18T06:00:58;18.80;;;10.90;;
4957;SDS011;2494;51.872;9.688;2022-12-18T06:03:51;18.03;;;11.57;;
4957;SDS011;2494;51.872;9.688;2022-12-18T06:06:36;17.63;;;11.50;;
4957;SDS011;2494;51.872;9.688;2022-12-18T06:09:21;19.87;;;9.83;;
4957;SDS011;2494;51.872;9.688;2022-12-18T06:12:06;22.80;;;12.60;;
4957;SDS011;2494;51.872;9.688;2022-12-18T06:14:51;19.23;;;10.27;;
4957;SDS011;2494;51.872;9.688;2022-12-18T06:17:36;18.47;;;11.90;;
4957;SDS011;2494;51.872;9.688;2022-12-18T06:20:22;16.40;;;10.30;;
4957;SDS011;2494;51.872;9.688;2022-12-18T06:23:07;16.53;;;10.73;;
4957;SDS011;2494;51.872;9.688;2022-12-18T06:25:52;18.10;;;10.87;;
4957;SDS011;2494;51.872;9.688;2022-12-18T06:28:37;17.60;;;10.27;;
4957;SDS011;2494;51.872;9.688;2022-12-18T06:31:22;13.55;;;9.82;;
4957;SDS011;2494;51.872;9.688;2022-12-18T06:34:07;15.97;;;8.53;;
4957;SDS011;2494;51.872;9.688;2022-12-18T06:36:53;11.82;;;7.93;;
4957;SDS011;2494;51.872;9.688;2022-12-18T06:39:38;14.30;;;8.57;;
4957;SDS011;2494;51.872;9.688;2022-12-18T06:42:23;14.47;;;9.67;;
4957;SDS011;2494;51.872;9.688;2022-12-18T06:45:09;14.23;;;9.40;;
4957;SDS011;2494;51.872;9.688;2022-12-18T06:47:54;21.03;;;10.30;;
4957;SDS011;2494;51.872;9.688;2022-12-18T06:50:41;10.23;;;9.23;;
4957;SDS011;2494;51.872;9.688;2022-12-18T06:53:28;23.90;;;10.83;;
4957;SDS011;2494;51.872;9.688;2022-12-18T06:56:13;15.17;;;9.57;;
4957;SDS011;2494;51.872;9.688;2022-12-18T06:58:58;24.63;;;14.03;;
4957;SDS011;2494;51.872;9.688;2022-12-18T07:01:43;14.73;;;10.83;;
4957;SDS011;2494;51.872;9.688;2022-12-18T07:04:28;21.53;;;12.70;;
4957;SDS011;2494;51.872;9.688;2022-12-18T07:07:13;15.63;;;12.23;;
4957;SDS011;2494;51.872;9.688;2022-12-18T07:09:59;27.07;;;12.23;;
4957;SDS011;2494;51.872;9.688;2022-12-18T07:12:44;20.17;;;12.77;;
4957;SDS011;2494;51.872;9.688;2022-12-18T07:15:30;24.33;;;11.70;;
4957;SDS011;2494;51.872;9.688;2022-12-18T07:18:15;15.80;;;10.20;;
4957;SDS011;2494;51.872;9.688;2022-12-18T07:21:02;18.77;;;9.67;;
4957;SDS011;2494;51.872;9.688;2022-12-18T07:23:47;19.30;;;11.13;;
4957;SDS011;2494;51.872;9.688;2022-12-18T07:26:33;14.43;;;10.00;;
4957;SDS011;2494;51.872;9.688;2022-12-18T07:29:18;14.33;;;9.90;;
4957;SDS011;2494;51.872;9.688;2022-12-18T07:32:03;18.00;;;10.00;;
4957;SDS011;2494;51.872;9.688;2022-12-18T07:34:48;16.33;;;11.10;;
4957;SDS011;2494;51.872;9.688;2022-12-18T07:37:33;24.73;;;12.57;;
4957;SDS011;2494;51.872;9.688;2022-12-18T07:40:18;17.17;;;11.10;;
4957;SDS011;2494;51.872;9.688;2022-12-18T07:43:04;16.87;;;10.73;;
4957;SDS011;2494;51.872;9.688;2022-12-18T07:45:49;13.87;;;9.63;;
4957;SDS011;2494;51.872;9.688;2022-12-18T07:48:35;20.93;;;10.90;;
4957;SDS011;2494;51.872;9.688;2022-12-18T07:51:20;18.10;;;10.73;;
4957;SDS011;2494;51.872;9.688;2022-12-18T07:54:05;18.52;;;11.77;;
4957;SDS011;2494;51.872;9.688;2022-12-18T07:56:50;17.90;;;12.07;;
4957;SDS011;2494;51.872;9.688;2022-12-18T07:59:36;21.07;;;12.80;;
4957;SDS011;2494;51.872;9.688;2022-12-18T08:02:21;21.47;;;11.33;;
4957;SDS011;2494;51.872;9.688;2022-12-18T08:05:06;21.13;;;12.47;;
4957;SDS011;2494;51.872;9.688;2022-12-18T08:07:52;22.70;;;10.53;;
4957;SDS011;2494;51.872;9.688;2022-12-18T08:10:37;12.97;;;8.90;;
4957;SDS011;2494;51.872;9.688;2022-12-18T08:13:22;17.30;;;10.80;;
4957;SDS011;2494;51.872;9.688;2022-12-18T08:16:09;25.40;;;11.67;;
4957;SDS011;2494;51.872;9.688;2022-12-18T08:18:54;19.13;;;11.57;;
4957;SDS011;2494;51.872;9.688;2022-12-18T08:21:39;11.80;;;9.27;;
4957;SDS011;2494;51.872;9.688;2022-12-18T08:24:27;22.97;;;14.63;;
4957;SDS011;2494;51.872;9.688;2022-12-18T08:27:12;10.03;;;8.83;;
4957;SDS011;2494;51.872;9.688;2022-12-18T08:29:57;23.83;;;9.37;;
4957;SDS011;2494;51.872;9.688;2022-12-18T08:32:43;13.10;;;10.43;;
4957;SDS011;2494;51.872;9.688;2022-12-18T08:35:28;15.60;;;7.67;;
4957;SDS011;2494;51.872;9.688;2022-12-18T08:38:13;16.23;;;9.43;;
4957;SDS011;2494;51.872;9.688;2022-12-18T08:40:58;24.70;;;13.10;;
4957;SDS011;2494;51.872;9.688;2022-12-18T08:43:44;23.33;;;11.97;;
4957;SDS011;2494;51.872;9.688;2022-12-18T08:46:47;13.33;;;9.40;;
4957;SDS011;2494;51.872;9.688;2022-12-18T08:49:33;20.33;;;11.67;;
4957;SDS011;2494;51.872;9.688;2022-12-18T08:52:18;30.13;;;12.70;;
4957;SDS011;2494;51.872;9.688;2022-12-18T08:55:04;16.83;;;11.47;;
4957;SDS011;2494;51.872;9.688;2022-12-18T08:57:50;22.57;;;15.27;;
4957;SDS011;2494;51.872;9.688;2022-12-18T09:00:35;21.53;;;13.73;;
4957;SDS011;2494;51.872;9.688;2022-12-18T09:03:19;21.13;;;12.80;;
4957;SDS011;2494;51.872;9.688;2022-12-18T09:06:07;18.67;;;12.63;;
4957;SDS011;2494;51.872;9.688;2022-12-18T09:08:52;23.93;;;9.90;;
4957;SDS011;2494;51.872;9.688;2022-12-18T09:11:37;17.87;;;13.87;;
4957;SDS011;2494;51.872;9.688;2022-12-18T09:14:22;15.33;;;10.73;;
4957;SDS011;2494;51.872;9.688;2022-12-18T09:17:07;19.13;;;12.70;;
4957;SDS011;2494;51.872;9.688;2022-12-18T09:19:53;28.40;;;13.23;;
4957;SDS011;2494;51.872;9.688;2022-12-18T09:22:39;28.97;;;11.73;;
4957;SDS011;2494;51.872;9.688;2022-12-18T09:25:24;13.43;;;8.17;;
4957;SDS011;2494;51.872;9.688;2022-12-18T09:28:10;18.73;;;13.00;;
4957;SDS011;2494;51.872;9.688;2022-12-18T09:30:57;25.43;;;13.00;;
4957;SDS011;2494;51.872;9.688;2022-12-18T09:33:42;20.10;;;12.80;;
4957;SDS011;2494;51.872;9.688;2022-12-18T09:36:28;19.77;;;11.77;;
4957;SDS011;2494;51.872;9.688;2022-12-18T09:39:15;23.87;;;14.10;;
4957;SDS011;2494;51.872;9.688;2022-12-18T09:42:00;18.57;;;13.80;;
4957;SDS011;2494;51.872;9.688;2022-12-18T09:44:46;25.20;;;16.57;;
4957;SDS011;2494;51.872;9.688;2022-12-18T09:47:33;19.37;;;15.07;;
4957;SDS011;2494;51.872;9.688;2022-12-18T09:50:22;24.80;;;18.60;;
4957;SDS011;2494;51.872;9.688;2022-12-18T09:53:10;18.10;;;12.43;;
4957;SDS011;2494;51.872;9.688;2022-12-18T09:55:58;20.53;;;13.50;;
4957;SDS011;2494;51.872;9.688;2022-12-18T09:58:45;18.73;;;11.10;;
4957;SDS011;2494;51.872;9.688;2022-12-18T10:01:32;17.23;;;11.87;;
4957;SDS011;2494;51.872;9.688;2022-12-18T10:04:17;18.17;;;11.13;;
4957;SDS011;2494;51.872;9.688;2022-12-18T10:07:03;14.97;;;10.37;;
4957;SDS011;2494;51.872;9.688;2022-12-18T10:09:51;18.93;;;11.70;;
4957;SDS011;2494;51.872;9.688;2022-12-18T10:12:41;19.03;;;13.90;;
4957;SDS011;2494;51.872;9.688;2022-12-18T10:15:28;20.30;;;12.47;;
4957;SDS011;2494;51.872;9.688;2022-12-18T10:18:20;24.17;;;14.33;;
4957;SDS011;2494;51.872;9.688;2022-12-18T10:21:07;19.20;;;12.00;;
4957;SDS011;2494;51.872;9.688;2022-12-18T10:23:55;19.13;;;11.13;;
4957;SDS011;2494;51.872;9.688;2022-12-18T10:26:43;17.30;;;12.17;;
4957;SDS011;2494;51.872;9.688;2022-12-18T10:29:30;17.57;;;11.80;;
4957;SDS011;2494;51.872;9.688;2022-12-18T10:32:16;16.03;;;10.47;;
4957;SDS011;2494;51.872;9.688;2022-12-18T10:35:01;16.10;;;9.93;;
4957;SDS011;2494;51.872;9.688;2022-12-18T10:37:59;21.00;;;10.37;;
4957;SDS011;2494;51.872;9.688;2022-12-18T10:40:48;16.40;;;11.77;;
4957;SDS011;2494;51.872;9.688;2022-12-18T10:43:35;16.47;;;10.03;;
4957;SDS011;2494;51.872;9.688;2022-12-18T10:46:21;12.90;;;9.47;;
4957;SDS011;2494;51.872;9.688;2022-12-18T10:49:17;13.83;;;9.03;;
4957;SDS011;2494;51.872;9.688;2022-12-18T10:52:07;17.10;;;10.93;;
4957;SDS011;2494;51.872;9.688;2022-12-18T10:54:53;18.67;;;10.73;;
4957;SDS011;2494;51.872;9.688;2022-12-18T10:57:41;15.03;;;9.40;;
4957;SDS011;2494;51.872;9.688;2022-12-18T11:00:27;13.13;;;10.80;;
4957;SDS011;2494;51.872;9.688;2022-12-18T11:06:18;15.37;;;10.67;;
4957;SDS011;2494;51.872;9.688;2022-12-18T11:09:05;15.17;;;11.27;;
4957;SDS011;2494;51.872;9.688;2022-12-18T11:11:51;20.90;;;12.20;;
4957;SDS011;2494;51.872;9.688;2022-12-18T11:14:41;17.53;;;12.27;;
4957;SDS011;2494;51.872;9.688;2022-12-18T11:17:28;17.57;;;11.30;;
4957;SDS011;2494;51.872;9.688;2022-12-18T11:20:19;14.10;;;10.20;;
4957;SDS011;2494;51.872;9.688;2022-12-18T11:23:10;22.67;;;13.50;;
4957;SDS011;2494;51.872;9.688;2022-12-18T11:25:57;20.50;;;11.60;;
4957;SDS011;2494;51.872;9.688;2022-12-18T11:28:43;24.33;;;14.67;;
4957;SDS011;2494;51.872;9.688;2022-12-18T11:31:29;20.40;;;12.67;;
4957;SDS011;2494;51.872;9.688;2022-12-18T11:34:16;16.60;;;11.50;;
4957;SDS011;2494;51.872;9.688;2022-12-18T11:37:04;17.60;;;11.30;;
4957;SDS011;2494;51.872;9.688;2022-12-18T11:39:51;16.57;;;11.43;;
4957;SDS011;2494;51.872;9.688;2022-12-18T11:42:38;20.83;;;14.20;;
4957;SDS011;2494;51.872;9.688;2022-12-18T11:45:29;22.97;;;13.20;;
4957;SDS011;2494;51.872;9.688;2022-12-18T11:48:17;15.40;;;13.80;;
4957;SDS011;2494;51.872;9.688;2022-12-18T11:51:03;18.00;;;12.63;;
4957;SDS011;2494;51.872;9.688;2022-12-18T11:53:51;21.30;;;14.37;;
4957;SDS011;2494;51.872;9.688;2022-12-18T11:56:39;19.07;;;12.10;;
4957;SDS011;2494;51.872;9.688;2022-12-18T11:59:30;20.93;;;14.20;;
4957;SDS011;2494;51.872;9.688;2022-12-18T12:02:24;18.77;;;13.43;;
4957;SDS011;2494;51.872;9.688;2022-12-18T12:05:18;24.00;;;12.50;;
4957;SDS011;2494;51.872;9.688;2022-12-18T12:08:06;19.67;;;14.03;;
4957;SDS011;2494;51.872;9.688;2022-12-18T12:10:57;20.60;;;11.67;;
4957;SDS011;2494;51.872;9.688;2022-12-18T12:13:46;18.63;;;12.70;;
4957;SDS011;2494;51.872;9.688;2022-12-18T12:16:35;17.20;;;11.83;;
4957;SDS011;2494;51.872;9.688;2022-12-18T12:19:25;17.77;;;11.10;;
4957;SDS011;2494;51.872;9.688;2022-12-18T12:22:17;14.87;;;12.00;;
4957;SDS011;2494;51.872;9.688;2022-12-18T12:25:09;14.87;;;11.20;;
4957;SDS011;2494;51.872;9.688;2022-12-18T12:27:59;12.13;;;9.37;;
4957;SDS011;2494;51.872;9.688;2022-12-18T12:30:51;11.03;;;9.87;;
4957;SDS011;2494;51.872;9.688;2022-12-18T12:33:42;9.70;;;8.67;;
4957;SDS011;2494;51.872;9.688;2022-12-18T12:36:32;12.03;;;8.50;;
4957;SDS011;2494;51.872;9.688;2022-12-18T12:39:21;13.10;;;8.80;;
4957;SDS011;2494;51.872;9.688;2022-12-18T12:42:10;16.53;;;9.10;;
4957;SDS011;2494;51.872;9.688;2022-12-18T12:45:30;10.50;;;9.10;;
4957;SDS011;2494;51.872;9.688;2022-12-18T12:48:20;12.50;;;8.43;;
4957;SDS011;2494;51.872;9.688;2022-12-18T12:51:10;15.10;;;10.60;;
4957;SDS011;2494;51.872;9.688;2022-12-18T12:53:56;15.53;;;9.53;;
4957;SDS011;2494;51.872;9.688;2022-12-18T12:56:42;11.17;;;8.00;;
4957;SDS011;2494;51.872;9.688;2022-12-18T12:59:30;10.03;;;7.60;;
4957;SDS011;2494;51.872;9.688;2022-12-18T13:02:20;15.10;;;11.27;;
4957;SDS011;2494;51.872;9.688;2022-12-18T13:05:11;11.60;;;9.20;;
4957;SDS011;2494;51.872;9.688;2022-12-18T13:08:01;20.07;;;13.57;;
4957;SDS011;2494;51.872;9.688;2022-12-18T13:10:47;14.80;;;9.27;;
4957;SDS011;2494;51.872;9.688;2022-12-18T13:13:36;15.60;;;9.20;;
4957;SDS011;2494;51.872;9.688;2022-12-18T13:16:31;12.30;;;8.40;;
4957;SDS011;2494;51.872;9.688;2022-12-18T13:19:21;11.63;;;8.40;;
4957;SDS011;2494;51.872;9.688;2022-12-18T13:22:12;11.13;;;8.10;;
4957;SDS011;2494;51.872;9.688;2022-12-18T13:28:10;9.37;;;8.40;;
4957;SDS011;2494;51.872;9.688;2022-12-18T13:30:56;10.33;;;5.60;;
4957;SDS011;2494;51.872;9.688;2022-12-18T13:33:42;8.53;;;6.70;;
4957;SDS011;2494;51.872;9.688;2022-12-18T13:36:29;8.27;;;5.93;;
4957;SDS011;2494;51.872;9.688;2022-12-18T13:39:23;14.23;;;7.27;;
4957;SDS011;2494;51.872;9.688;2022-12-18T13:45:46;9.30;;;7.70;;
4957;SDS011;2494;51.872;9.688;2022-12-18T13:48:33;8.83;;;7.80;;
4957;SDS011;2494;51.872;9.688;2022-12-18T13:51:18;12.70;;;8.07;;
4957;SDS011;2494;51.872;9.688;2022-12-18T13:54:06;13.57;;;8.80;;
4957;SDS011;2494;51.872;9.688;2022-12-18T13:56:57;9.00;;;7.80;;
4957;SDS011;2494;51.872;9.688;2022-12-18T13:59:44;12.67;;;8.70;;
4957;SDS011;2494;51.872;9.688;2022-12-18T14:02:29;9.23;;;8.43;;
4957;SDS011;2494;51.872;9.688;2022-12-18T14:05:21;13.27;;;7.90;;
4957;SDS011;2494;51.872;9.688;2022-12-18T14:08:08;8.80;;;7.90;;
4957;SDS011;2494;51.872;9.688;2022-12-18T14:10:53;10.60;;;8.10;;
4957;SDS011;2494;51.872;9.688;2022-12-18T14:13:41;11.17;;;8.20;;
4957;SDS011;2494;51.872;9.688;2022-12-18T14:16:26;11.27;;;7.30;;
4957;SDS011;2494;51.872;9.688;2022-12-18T14:19:12;11.30;;;8.70;;
4957;SDS011;2494;51.872;9.688;2022-12-18T14:21:59;8.20;;;6.20;;
4957;SDS011;2494;51.872;9.688;2022-12-18T14:24:44;11.80;;;8.17;;
4957;SDS011;2494;51.872;9.688;2022-12-18T14:27:29;10.10;;;6.77;;
4957;SDS011;2494;51.872;9.688;2022-12-18T14:30:29;11.37;;;6.43;;
4957;SDS011;2494;51.872;9.688;2022-12-18T14:33:15;9.33;;;6.30;;
4957;SDS011;2494;51.872;9.688;2022-12-18T14:36:02;9.20;;;6.20;;
4957;SDS011;2494;51.872;9.688;2022-12-18T14:38:48;13.83;;;7.70;;
4957;SDS011;2494;51.872;9.688;2022-12-18T14:41:34;10.33;;;7.50;;
4957;SDS011;2494;51.872;9.688;2022-12-18T14:44:19;6.87;;;4.80;;
4957;SDS011;2494;51.872;9.688;2022-12-18T14:47:13;5.77;;;5.03;;
4957;SDS011;2494;51.872;9.688;2022-12-18T14:49:59;6.30;;;4.47;;
4957;SDS011;2494;51.872;9.688;2022-12-18T14:52:44;9.40;;;6.23;;
4957;SDS011;2494;51.872;9.688;2022-12-18T14:55:30;7.03;;;4.40;;
4957;SDS011;2494;51.872;9.688;2022-12-18T14:58:15;8.00;;;5.70;;
4957;SDS011;2494;51.872;9.688;2022-12-18T15:01:00;11.27;;;6.50;;
4957;SDS011;2494;51.872;9.688;2022-12-18T15:03:47;7.87;;;7.13;;
4957;SDS011;2494;51.872;9.688;2022-12-18T15:06:33;12.23;;;7.30;;
4957;SDS011;2494;51.872;9.688;2022-12-18T15:09:20;7.30;;;5.50;;
4957;SDS011;2494;51.872;9.688;2022-12-18T15:12:15;6.30;;;5.70;;
4957;SDS011;2494;51.872;9.688;2022-12-18T15:15:03;12.87;;;7.07;;
4957;SDS011;2494;51.872;9.688;2022-12-18T15:17:48;8.03;;;5.50;;
4957;SDS011;2494;51.872;9.688;2022-12-18T15:20:39;5.83;;;5.03;;
4957;SDS011;2494;51.872;9.688;2022-12-18T15:23:26;4.47;;;4.07;;
4957;SDS011;2494;51.872;9.688;2022-12-18T15:26:12;5.80;;;5.20;;
4957;SDS011;2494;51.872;9.688;2022-12-18T15:28:58;6.70;;;5.57;;
4957;SDS011;2494;51.872;9.688;2022-12-18T15:31:45;5.47;;;3.80;;
4957;SDS011;2494;51.872;9.688;2022-12-18T15:34:42;7.50;;;6.70;;
4957;SDS011;2494;51.872;9.688;2022-12-18T15:37:28;8.90;;;6.40;;
4957;SDS011;2494;51.872;9.688;2022-12-18T15:40:14;6.50;;;5.80;;
4957;SDS011;2494;51.872;9.688;2022-12-18T15:42:59;11.77;;;7.03;;
4957;SDS011;2494;51.872;9.688;2022-12-18T15:46:03;9.03;;;4.70;;
4957;SDS011;2494;51.872;9.688;2022-12-18T15:48:49;10.50;;;6.10;;
4957;SDS011;2494;51.872;9.688;2022-12-18T15:51:35;10.80;;;6.93;;
4957;SDS011;2494;51.872;9.688;2022-12-18T15:54:22;14.93;;;7.23;;
4957;SDS011;2494;51.872;9.688;2022-12-18T15:57:21;9.77;;;7.17;;
4957;SDS011;2494;51.872;9.688;2022-12-18T16:00:11;9.97;;;7.27;;
4957;SDS011;2494;51.872;9.688;2022-12-18T16:02:56;8.67;;;7.07;;
4957;SDS011;2494;51.872;9.688;2022-12-18T16:05:41;7.80;;;7.00;;
4957;SDS011;2494;51.872;9.688;2022-12-18T16:08:26;11.13;;;7.23;;
4957;SDS011;2494;51.872;9.688;2022-12-18T16:11:16;6.53;;;5.90;;
4957;SDS011;2494;51.872;9.688;2022-12-18T16:14:22;8.30;;;5.60;;
4957;SDS011;2494;51.872;9.688;2022-12-18T16:17:08;9.70;;;6.30;;
4957;SDS011;2494;51.872;9.688;2022-12-18T16:19:54;10.17;;;8.00;;
4957;SDS011;2494;51.872;9.688;2022-12-18T16:22:38;10.13;;;8.57;;
4957;SDS011;2494;51.872;9.688;2022-12-18T16:25:24;8.37;;;5.67;;
4957;SDS011;2494;51.872;9.688;2022-12-18T16:28:10;7.37;;;5.90;;
4957;SDS011;2494;51.872;9.688;2022-12-18T16:30:55;8.13;;;5.50;;
4957;SDS011;2494;51.872;9.688;2022-12-18T16:33:40;8.00;;;6.17;;
4957;SDS011;2494;51.872;9.688;2022-12-18T16:36:25;7.70;;;5.37;;
4957;SDS011;2494;51.872;9.688;2022-12-18T16:39:10;8.50;;;4.63;;
4957;SDS011;2494;51.872;9.688;2022-12-18T16:41:55;9.83;;;7.67;;
4957;SDS011;2494;51.872;9.688;2022-12-18T16:44:42;10.63;;;6.70;;
4957;SDS011;2494;51.872;9.688;2022-12-18T16:47:27;10.23;;;7.20;;
4957;SDS011;2494;51.872;9.688;2022-12-18T16:50:12;7.90;;;5.40;;
4957;SDS011;2494;51.872;9.688;2022-12-18T16:52:57;7.20;;;5.40;;
4957;SDS011;2494;51.872;9.688;2022-12-18T16:55:42;11.00;;;5.80;;
4957;SDS011;2494;51.872;9.688;2022-12-18T16:58:27;8.20;;;7.23;;
4957;SDS011;2494;51.872;9.688;2022-12-18T17:01:13;7.03;;;5.90;;
4957;SDS011;2494;51.872;9.688;2022-12-18T17:03:59;7.37;;;6.57;;
4957;SDS011;2494;51.872;9.688;2022-12-18T17:06:45;8.37;;;7.33;;
4957;SDS011;2494;51.872;9.688;2022-12-18T17:09:34;11.37;;;6.17;;